Terminal Aerodrome Forecast
Issued by NWS La Crosse, WI

Home | Current Version | Previous Version | Text Only | Print | Product List | Glossary On
Versions: 1 2 3 4 5 6 7 8 9 10 11 12 13 14 15 16 17 18 19 20 21 22
000
FTUS43 KARX 271813 AAA
TAFRST
TAF AMD
KRST 271813Z 2718/2818 36005KT P6SM OVC011
     FM280600 03004KT 4SM BR OVC015
     FM281100 VRB03KT 2SM BR OVC008
     FM281200 05004KT 1 1/2SM BR OVC003
     FM281400 07005KT 3SM BR BKN015
     FM281600 08005KT P6SM SCT040=

USA.gov is the U.S. government's official web portal to all federal, state and local government web resources and services.